Mae Hong Son, Thailand

8:10 AM ICT on November 01, 2014 (GMT +0700)
Mae Hong Son | Change Station
CLOSE
Current Station
Airport
Location: Mae Hong Son,
Elevation: 928 ft
Nearby Weather Stations

Elev 928 ft 19.30 °N, 97.97 °E | Updated 10 minutes ago

Partly Cloudy
Partly Cloudy
77 °F
Feels Like 77 °F
N
0
Wind Variable Wind from North

Today
High -- | Low -- °F
--% Chance of Precip.
Yesterday
High -- | Low -- °F
Precip. -- in
6:28 AM 5:54 PM
First Quarter, 61% visible
Pressure 29.89 in
Visibility 4.3 miles
Clouds Few 1500 ft
Dew Point 72 °F
Humidity 83%
Rainfall 0.00 in
Snow Depth Not available.
UV 2 out of 12
Pollen Not available.
Air Quality Not available.
Flu Activity Not available.
METAR VTCH 010100Z 00000KT 7000 FEW015 25/22 Q1012 A2991 INFO:B

More Conditions Fewer Conditions

Pressure 29.89 in
Visibility 4.3 miles
Clouds Few 1500 ft
Dew Point 72 °F
Humidity 83%
Rainfall 0.00 in
Snow Depth Not available.
UV 2 out of 12
Pollen Not available.
Air Quality Not available.
Flu Activity Not available.
METAR VTCH 010100Z 00000KT 7000 FEW015 25/22 Q1012 A2991 INFO:B

More Conditions Fewer Conditions

10-Day Weather Forecast

Almanac

Astronomy

Nov. 01, 2014 Rise Set
Actual Time
Civil Twilight
Nautical Twilight
Astronomical Twilight
Moon
Length of Visible Light
Length of Day
Tomorrow will be .
, % of the Moon is Illuminated

Today's Extremes

Country Highs Country Lows

Community

WunderPhotos

Upload Photos

1,766,798 photos uploaded!

WunderBlogs® & News

Nearby

Air Quality

  Air Quality AQ Index Pollutant
Not available.

Snow Depth

Station Depth Elevation

Earthquake Activity

City Distance Mag. Time & Date
Minimum magnitude displayed is 2.5.

Coastal Water Temperatures

Place Temperature

Nearby Weather Stations